sensor_id;sensor_type;location;lat;lon;timestamp;P1;durP1;ratioP1;P2;durP2;ratioP2
7173;SDS011;3628;48.654;8.932;2024-02-15T00:01:30;3.47;;;1.67;;
7173;SDS011;3628;48.654;8.932;2024-02-15T00:03:56;2.13;;;1.63;;
7173;SDS011;3628;48.654;8.932;2024-02-15T00:06:22;3.33;;;1.60;;
7173;SDS011;3628;48.654;8.932;2024-02-15T00:08:48;2.23;;;1.60;;
7173;SDS011;3628;48.654;8.932;2024-02-15T00:11:14;1.87;;;1.23;;
7173;SDS011;3628;48.654;8.932;2024-02-15T00:13:40;4.60;;;1.57;;
7173;SDS011;3628;48.654;8.932;2024-02-15T00:16:06;1.50;;;1.40;;
7173;SDS011;3628;48.654;8.932;2024-02-15T00:18:31;5.20;;;1.00;;
7173;SDS011;3628;48.654;8.932;2024-02-15T00:20:57;2.83;;;1.27;;
7173;SDS011;3628;48.654;8.932;2024-02-15T00:23:25;1.70;;;1.13;;
7173;SDS011;3628;48.654;8.932;2024-02-15T00:25:50;2.80;;;1.30;;
7173;SDS011;3628;48.654;8.932;2024-02-15T00:28:16;2.47;;;1.10;;
7173;SDS011;3628;48.654;8.932;2024-02-15T00:30:42;3.33;;;1.13;;
7173;SDS011;3628;48.654;8.932;2024-02-15T00:33:07;2.97;;;1.20;;
7173;SDS011;3628;48.654;8.932;2024-02-15T00:35:33;1.20;;;1.10;;
7173;SDS011;3628;48.654;8.932;2024-02-15T00:37:58;1.57;;;1.17;;
7173;SDS011;3628;48.654;8.932;2024-02-15T00:40:24;2.10;;;1.20;;
7173;SDS011;3628;48.654;8.932;2024-02-15T00:42:50;4.27;;;1.10;;
7173;SDS011;3628;48.654;8.932;2024-02-15T00:45:15;1.17;;;1.00;;
7173;SDS011;3628;48.654;8.932;2024-02-15T00:47:41;1.10;;;0.87;;
7173;SDS011;3628;48.654;8.932;2024-02-15T00:50:07;5.53;;;1.40;;
7173;SDS011;3628;48.654;8.932;2024-02-15T00:52:34;2.50;;;1.30;;
7173;SDS011;3628;48.654;8.932;2024-02-15T00:54:59;2.83;;;1.03;;
7173;SDS011;3628;48.654;8.932;2024-02-15T00:57:25;3.60;;;1.20;;
7173;SDS011;3628;48.654;8.932;2024-02-15T00:59:50;1.53;;;1.20;;
7173;SDS011;3628;48.654;8.932;2024-02-15T01:02:17;2.17;;;1.27;;
7173;SDS011;3628;48.654;8.932;2024-02-15T01:04:43;2.70;;;1.70;;
7173;SDS011;3628;48.654;8.932;2024-02-15T01:07:10;3.00;;;1.43;;
7173;SDS011;3628;48.654;8.932;2024-02-15T01:09:36;2.23;;;1.20;;
7173;SDS011;3628;48.654;8.932;2024-02-15T01:12:01;1.77;;;1.30;;
7173;SDS011;3628;48.654;8.932;2024-02-15T01:14:28;1.50;;;1.20;;
7173;SDS011;3628;48.654;8.932;2024-02-15T01:16:55;1.77;;;1.20;;
7173;SDS011;3628;48.654;8.932;2024-02-15T01:19:21;1.70;;;1.10;;
7173;SDS011;3628;48.654;8.932;2024-02-15T01:21:47;1.50;;;1.17;;
7173;SDS011;3628;48.654;8.932;2024-02-15T01:24:12;2.83;;;1.40;;
7173;SDS011;3628;48.654;8.932;2024-02-15T01:26:38;1.37;;;1.13;;
7173;SDS011;3628;48.654;8.932;2024-02-15T01:29:03;1.30;;;1.00;;
7173;SDS011;3628;48.654;8.932;2024-02-15T01:31:29;1.27;;;1.03;;
7173;SDS011;3628;48.654;8.932;2024-02-15T01:33:54;1.20;;;0.90;;
7173;SDS011;3628;48.654;8.932;2024-02-15T01:36:20;1.93;;;1.13;;
7173;SDS011;3628;48.654;8.932;2024-02-15T01:38:46;3.70;;;1.07;;
7173;SDS011;3628;48.654;8.932;2024-02-15T01:41:11;1.70;;;0.97;;
7173;SDS011;3628;48.654;8.932;2024-02-15T01:43:37;1.43;;;1.13;;
7173;SDS011;3628;48.654;8.932;2024-02-15T01:46:07;1.17;;;1.07;;
7173;SDS011;3628;48.654;8.932;2024-02-15T01:48:34;2.00;;;1.13;;
7173;SDS011;3628;48.654;8.932;2024-02-15T01:51:01;1.53;;;1.07;;
7173;SDS011;3628;48.654;8.932;2024-02-15T01:53:26;2.10;;;1.30;;
7173;SDS011;3628;48.654;8.932;2024-02-15T01:55:53;1.37;;;1.20;;
7173;SDS011;3628;48.654;8.932;2024-02-15T01:58:22;3.30;;;1.10;;
7173;SDS011;3628;48.654;8.932;2024-02-15T02:00:50;2.27;;;1.33;;
7173;SDS011;3628;48.654;8.932;2024-02-15T02:03:16;3.73;;;1.20;;
7173;SDS011;3628;48.654;8.932;2024-02-15T02:05:42;2.60;;;1.30;;
7173;SDS011;3628;48.654;8.932;2024-02-15T02:08:08;1.43;;;1.33;;
7173;SDS011;3628;48.654;8.932;2024-02-15T02:10:37;2.67;;;1.30;;
7173;SDS011;3628;48.654;8.932;2024-02-15T02:13:06;2.27;;;1.87;;
7173;SDS011;3628;48.654;8.932;2024-02-15T02:15:32;1.43;;;1.10;;
7173;SDS011;3628;48.654;8.932;2024-02-15T02:17:58;1.27;;;1.17;;
7173;SDS011;3628;48.654;8.932;2024-02-15T02:20:25;1.67;;;1.37;;
7173;SDS011;3628;48.654;8.932;2024-02-15T02:22:53;1.77;;;1.10;;
7173;SDS011;3628;48.654;8.932;2024-02-15T02:25:21;2.23;;;1.10;;
7173;SDS011;3628;48.654;8.932;2024-02-15T02:27:51;1.83;;;1.20;;
7173;SDS011;3628;48.654;8.932;2024-02-15T02:30:17;1.43;;;1.30;;
7173;SDS011;3628;48.654;8.932;2024-02-15T02:32:44;2.47;;;1.70;;
7173;SDS011;3628;48.654;8.932;2024-02-15T02:35:10;1.97;;;1.27;;
7173;SDS011;3628;48.654;8.932;2024-02-15T02:37:41;1.50;;;1.33;;
7173;SDS011;3628;48.654;8.932;2024-02-15T02:40:07;2.37;;;1.40;;
7173;SDS011;3628;48.654;8.932;2024-02-15T02:45:21;2.30;;;1.17;;
7173;SDS011;3628;48.654;8.932;2024-02-15T02:47:48;1.63;;;1.30;;
7173;SDS011;3628;48.654;8.932;2024-02-15T02:50:14;2.27;;;1.40;;
7173;SDS011;3628;48.654;8.932;2024-02-15T02:52:40;1.33;;;1.17;;
7173;SDS011;3628;48.654;8.932;2024-02-15T02:55:05;2.23;;;1.10;;
7173;SDS011;3628;48.654;8.932;2024-02-15T02:57:35;4.87;;;1.53;;
7173;SDS011;3628;48.654;8.932;2024-02-15T03:00:03;2.63;;;1.50;;
7173;SDS011;3628;48.654;8.932;2024-02-15T03:02:40;1.50;;;1.20;;
7173;SDS011;3628;48.654;8.932;2024-02-15T03:05:07;1.37;;;1.27;;
7173;SDS011;3628;48.654;8.932;2024-02-15T03:07:33;1.80;;;1.20;;
7173;SDS011;3628;48.654;8.932;2024-02-15T03:10:03;2.10;;;1.10;;
7173;SDS011;3628;48.654;8.932;2024-02-15T03:12:32;4.03;;;1.20;;
7173;SDS011;3628;48.654;8.932;2024-02-15T03:15:00;1.17;;;1.07;;
7173;SDS011;3628;48.654;8.932;2024-02-15T03:17:26;3.10;;;1.30;;
7173;SDS011;3628;48.654;8.932;2024-02-15T03:19:52;3.10;;;1.10;;
7173;SDS011;3628;48.654;8.932;2024-02-15T03:22:18;2.73;;;1.30;;
7173;SDS011;3628;48.654;8.932;2024-02-15T03:24:43;1.23;;;1.03;;
7173;SDS011;3628;48.654;8.932;2024-02-15T03:27:09;4.43;;;1.30;;
7173;SDS011;3628;48.654;8.932;2024-02-15T03:29:38;0.93;;;0.90;;
7173;SDS011;3628;48.654;8.932;2024-02-15T03:32:03;0.87;;;0.87;;
7173;SDS011;3628;48.654;8.932;2024-02-15T03:34:30;1.50;;;1.23;;
7173;SDS011;3628;48.654;8.932;2024-02-15T03:36:56;1.43;;;1.00;;
7173;SDS011;3628;48.654;8.932;2024-02-15T03:39:25;2.47;;;1.00;;
7173;SDS011;3628;48.654;8.932;2024-02-15T03:41:51;1.20;;;1.10;;
7173;SDS011;3628;48.654;8.932;2024-02-15T03:44:18;1.73;;;1.30;;
7173;SDS011;3628;48.654;8.932;2024-02-15T03:46:44;1.90;;;1.03;;
7173;SDS011;3628;48.654;8.932;2024-02-15T03:49:16;2.30;;;1.30;;
7173;SDS011;3628;48.654;8.932;2024-02-15T03:51:42;1.93;;;1.10;;
7173;SDS011;3628;48.654;8.932;2024-02-15T03:54:10;7.63;;;1.50;;
7173;SDS011;3628;48.654;8.932;2024-02-15T03:56:36;1.37;;;1.10;;
7173;SDS011;3628;48.654;8.932;2024-02-15T03:59:02;2.77;;;1.10;;
7173;SDS011;3628;48.654;8.932;2024-02-15T04:01:29;2.00;;;1.40;;
7173;SDS011;3628;48.654;8.932;2024-02-15T04:03:58;1.47;;;1.17;;
7173;SDS011;3628;48.654;8.932;2024-02-15T04:06:24;3.10;;;1.20;;
7173;SDS011;3628;48.654;8.932;2024-02-15T04:08:53;3.77;;;1.40;;
7173;SDS011;3628;48.654;8.932;2024-02-15T04:11:19;3.97;;;1.60;;
7173;SDS011;3628;48.654;8.932;2024-02-15T04:13:45;8.07;;;1.80;;
7173;SDS011;3628;48.654;8.932;2024-02-15T04:16:10;1.90;;;1.37;;
7173;SDS011;3628;48.654;8.932;2024-02-15T04:18:36;1.97;;;1.27;;
7173;SDS011;3628;48.654;8.932;2024-02-15T04:21:03;1.57;;;1.30;;
7173;SDS011;3628;48.654;8.932;2024-02-15T04:23:30;2.07;;;1.20;;
7173;SDS011;3628;48.654;8.932;2024-02-15T04:25:56;54.53;;;4.57;;
7173;SDS011;3628;48.654;8.932;2024-02-15T04:28:22;2.00;;;1.10;;
7173;SDS011;3628;48.654;8.932;2024-02-15T04:30:48;1.50;;;1.10;;
7173;SDS011;3628;48.654;8.932;2024-02-15T04:33:14;1.57;;;1.20;;
7173;SDS011;3628;48.654;8.932;2024-02-15T04:35:40;2.97;;;1.20;;
7173;SDS011;3628;48.654;8.932;2024-02-15T04:38:07;1.63;;;1.20;;
7173;SDS011;3628;48.654;8.932;2024-02-15T04:40:33;2.40;;;1.33;;
7173;SDS011;3628;48.654;8.932;2024-02-15T04:43:00;1.67;;;1.10;;
7173;SDS011;3628;48.654;8.932;2024-02-15T04:45:29;2.17;;;1.10;;
7173;SDS011;3628;48.654;8.932;2024-02-15T04:47:55;1.50;;;1.10;;
7173;SDS011;3628;48.654;8.932;2024-02-15T04:50:27;1.90;;;1.23;;
7173;SDS011;3628;48.654;8.932;2024-02-15T04:52:53;1.40;;;1.27;;
7173;SDS011;3628;48.654;8.932;2024-02-15T04:55:18;3.90;;;1.37;;
7173;SDS011;3628;48.654;8.932;2024-02-15T04:57:44;1.10;;;1.00;;
7173;SDS011;3628;48.654;8.932;2024-02-15T05:00:13;1.33;;;1.20;;
7173;SDS011;3628;48.654;8.932;2024-02-15T05:02:40;1.53;;;1.33;;
7173;SDS011;3628;48.654;8.932;2024-02-15T05:05:14;2.13;;;1.30;;
7173;SDS011;3628;48.654;8.932;2024-02-15T05:07:41;2.43;;;1.47;;
7173;SDS011;3628;48.654;8.932;2024-02-15T05:10:08;1.63;;;1.13;;
7173;SDS011;3628;48.654;8.932;2024-02-15T05:12:34;3.27;;;1.50;;
7173;SDS011;3628;48.654;8.932;2024-02-15T05:15:02;2.33;;;1.10;;
7173;SDS011;3628;48.654;8.932;2024-02-15T05:17:35;5.87;;;1.53;;
7173;SDS011;3628;48.654;8.932;2024-02-15T05:20:01;1.47;;;1.07;;
7173;SDS011;3628;48.654;8.932;2024-02-15T05:22:35;2.00;;;1.10;;
7173;SDS011;3628;48.654;8.932;2024-02-15T05:25:01;3.53;;;1.33;;
7173;SDS011;3628;48.654;8.932;2024-02-15T05:27:27;2.50;;;1.50;;
7173;SDS011;3628;48.654;8.932;2024-02-15T05:29:52;3.23;;;1.57;;
7173;SDS011;3628;48.654;8.932;2024-02-15T05:32:18;2.87;;;1.17;;
7173;SDS011;3628;48.654;8.932;2024-02-15T05:34:45;2.20;;;1.17;;
7173;SDS011;3628;48.654;8.932;2024-02-15T05:37:11;1.57;;;1.40;;
7173;SDS011;3628;48.654;8.932;2024-02-15T05:39:37;3.60;;;1.43;;
7173;SDS011;3628;48.654;8.932;2024-02-15T05:42:02;3.13;;;1.20;;
7173;SDS011;3628;48.654;8.932;2024-02-15T05:44:29;1.50;;;0.93;;
7173;SDS011;3628;48.654;8.932;2024-02-15T05:46:55;2.80;;;1.20;;
7173;SDS011;3628;48.654;8.932;2024-02-15T05:49:21;2.10;;;1.23;;
7173;SDS011;3628;48.654;8.932;2024-02-15T05:51:48;2.77;;;1.43;;
7173;SDS011;3628;48.654;8.932;2024-02-15T05:54:14;4.17;;;1.20;;
7173;SDS011;3628;48.654;8.932;2024-02-15T05:56:41;3.43;;;1.73;;
7173;SDS011;3628;48.654;8.932;2024-02-15T05:59:09;1.37;;;1.10;;
7173;SDS011;3628;48.654;8.932;2024-02-15T06:01:37;4.10;;;1.20;;
7173;SDS011;3628;48.654;8.932;2024-02-15T06:04:04;1.80;;;1.23;;
7173;SDS011;3628;48.654;8.932;2024-02-15T06:06:33;3.83;;;1.20;;
7173;SDS011;3628;48.654;8.932;2024-02-15T06:08:59;2.37;;;1.27;;
7173;SDS011;3628;48.654;8.932;2024-02-15T06:11:26;5.30;;;1.43;;
7173;SDS011;3628;48.654;8.932;2024-02-15T06:13:51;2.30;;;1.40;;
7173;SDS011;3628;48.654;8.932;2024-02-15T06:16:18;7.50;;;2.50;;
7173;SDS011;3628;48.654;8.932;2024-02-15T06:18:43;5.33;;;1.90;;
7173;SDS011;3628;48.654;8.932;2024-02-15T06:21:09;1.90;;;1.50;;
7173;SDS011;3628;48.654;8.932;2024-02-15T06:23:35;4.20;;;1.90;;
7173;SDS011;3628;48.654;8.932;2024-02-15T06:26:00;2.73;;;1.37;;
7173;SDS011;3628;48.654;8.932;2024-02-15T06:28:27;1.80;;;1.40;;
7173;SDS011;3628;48.654;8.932;2024-02-15T06:31:13;1.37;;;1.27;;
7173;SDS011;3628;48.654;8.932;2024-02-15T06:33:57;3.77;;;1.20;;
7173;SDS011;3628;48.654;8.932;2024-02-15T06:39:33;1.73;;;1.30;;
7173;SDS011;3628;48.654;8.932;2024-02-15T06:42:10;2.03;;;1.20;;
7173;SDS011;3628;48.654;8.932;2024-02-15T06:44:39;3.23;;;1.53;;
7173;SDS011;3628;48.654;8.932;2024-02-15T06:47:05;2.23;;;1.40;;
7173;SDS011;3628;48.654;8.932;2024-02-15T06:49:31;2.60;;;1.33;;
7173;SDS011;3628;48.654;8.932;2024-02-15T06:52:00;1.40;;;1.30;;
7173;SDS011;3628;48.654;8.932;2024-02-15T06:54:27;1.50;;;1.40;;
7173;SDS011;3628;48.654;8.932;2024-02-15T06:56:53;30.60;;;4.60;;
7173;SDS011;3628;48.654;8.932;2024-02-15T06:59:19;2.80;;;1.60;;
7173;SDS011;3628;48.654;8.932;2024-02-15T07:01:47;2.70;;;1.63;;
7173;SDS011;3628;48.654;8.932;2024-02-15T07:04:17;2.27;;;2.00;;
7173;SDS011;3628;48.654;8.932;2024-02-15T07:06:43;3.03;;;1.60;;
7173;SDS011;3628;48.654;8.932;2024-02-15T07:09:12;5.10;;;1.90;;
7173;SDS011;3628;48.654;8.932;2024-02-15T07:11:40;2.30;;;1.80;;
7173;SDS011;3628;48.654;8.932;2024-02-15T07:14:06;2.93;;;1.70;;
7173;SDS011;3628;48.654;8.932;2024-02-15T07:16:32;2.77;;;1.90;;
7173;SDS011;3628;48.654;8.932;2024-02-15T07:18:58;5.23;;;1.70;;
7173;SDS011;3628;48.654;8.932;2024-02-15T07:21:25;2.40;;;1.80;;
7173;SDS011;3628;48.654;8.932;2024-02-15T07:23:54;2.50;;;1.60;;
7173;SDS011;3628;48.654;8.932;2024-02-15T07:26:23;4.97;;;1.77;;
7173;SDS011;3628;48.654;8.932;2024-02-15T07:28:59;1.83;;;1.40;;
7173;SDS011;3628;48.654;8.932;2024-02-15T07:31:28;4.00;;;1.73;;
7173;SDS011;3628;48.654;8.932;2024-02-15T07:33:54;4.70;;;1.90;;
7173;SDS011;3628;48.654;8.932;2024-02-15T07:36:20;3.30;;;1.70;;
7173;SDS011;3628;48.654;8.932;2024-02-15T07:38:47;4.43;;;1.70;;
7173;SDS011;3628;48.654;8.932;2024-02-15T07:41:22;2.27;;;1.57;;
7173;SDS011;3628;48.654;8.932;2024-02-15T07:43:49;3.23;;;2.10;;
7173;SDS011;3628;48.654;8.932;2024-02-15T07:46:15;4.07;;;1.93;;
7173;SDS011;3628;48.654;8.932;2024-02-15T07:48:44;2.40;;;1.80;;
7173;SDS011;3628;48.654;8.932;2024-02-15T07:51:17;4.20;;;1.87;;
7173;SDS011;3628;48.654;8.932;2024-02-15T07:53:47;2.20;;;1.50;;
7173;SDS011;3628;48.654;8.932;2024-02-15T07:56:13;4.93;;;1.63;;
7173;SDS011;3628;48.654;8.932;2024-02-15T07:58:40;2.60;;;1.87;;
7173;SDS011;3628;48.654;8.932;2024-02-15T08:01:14;2.23;;;1.60;;
7173;SDS011;3628;48.654;8.932;2024-02-15T08:03:40;5.20;;;1.90;;
7173;SDS011;3628;48.654;8.932;2024-02-15T08:06:09;1.97;;;1.70;;
7173;SDS011;3628;48.654;8.932;2024-02-15T08:08:37;2.77;;;2.07;;
7173;SDS011;3628;48.654;8.932;2024-02-15T08:11:12;2.33;;;1.60;;
7173;SDS011;3628;48.654;8.932;2024-02-15T08:13:45;2.63;;;1.90;;
7173;SDS011;3628;48.654;8.932;2024-02-15T08:16:14;3.53;;;2.00;;
7173;SDS011;3628;48.654;8.932;2024-02-15T08:18:41;3.40;;;1.73;;
7173;SDS011;3628;48.654;8.932;2024-02-15T08:21:08;5.13;;;1.90;;
7173;SDS011;3628;48.654;8.932;2024-02-15T08:23:35;4.03;;;2.20;;
7173;SDS011;3628;48.654;8.932;2024-02-15T08:26:01;3.30;;;2.10;;
7173;SDS011;3628;48.654;8.932;2024-02-15T08:28:27;4.90;;;2.40;;
7173;SDS011;3628;48.654;8.932;2024-02-15T08:30:54;3.50;;;2.10;;
7173;SDS011;3628;48.654;8.932;2024-02-15T08:33:21;3.73;;;2.23;;
7173;SDS011;3628;48.654;8.932;2024-02-15T08:35:46;4.83;;;2.27;;
7173;SDS011;3628;48.654;8.932;2024-02-15T08:38:12;6.23;;;2.73;;
7173;SDS011;3628;48.654;8.932;2024-02-15T08:40:37;2.80;;;2.43;;
7173;SDS011;3628;48.654;8.932;2024-02-15T08:43:03;3.73;;;2.03;;
7173;SDS011;3628;48.654;8.932;2024-02-15T08:45:29;4.40;;;1.90;;
7173;SDS011;3628;48.654;8.932;2024-02-15T08:47:54;3.27;;;2.30;;
7173;SDS011;3628;48.654;8.932;2024-02-15T08:50:20;4.60;;;1.93;;
7173;SDS011;3628;48.654;8.932;2024-02-15T08:52:48;3.90;;;2.47;;
7173;SDS011;3628;48.654;8.932;2024-02-15T08:55:14;2.50;;;2.17;;
7173;SDS011;3628;48.654;8.932;2024-02-15T08:57:40;5.27;;;2.13;;
7173;SDS011;3628;48.654;8.932;2024-02-15T09:00:06;3.40;;;2.30;;
7173;SDS011;3628;48.654;8.932;2024-02-15T09:02:47;4.57;;;2.70;;
7173;SDS011;3628;48.654;8.932;2024-02-15T09:05:17;3.90;;;2.30;;
7173;SDS011;3628;48.654;8.932;2024-02-15T09:07:44;2.27;;;1.87;;
7173;SDS011;3628;48.654;8.932;2024-02-15T09:10:13;4.00;;;2.20;;
7173;SDS011;3628;48.654;8.932;2024-02-15T09:12:40;3.10;;;1.90;;
7173;SDS011;3628;48.654;8.932;2024-02-15T09:15:10;2.97;;;2.00;;
7173;SDS011;3628;48.654;8.932;2024-02-15T09:17:36;4.00;;;2.33;;
7173;SDS011;3628;48.654;8.932;2024-02-15T09:20:13;4.10;;;2.20;;
7173;SDS011;3628;48.654;8.932;2024-02-15T09:22:47;3.13;;;1.90;;
7173;SDS011;3628;48.654;8.932;2024-02-15T09:25:14;3.87;;;1.90;;
7173;SDS011;3628;48.654;8.932;2024-02-15T09:27:40;2.60;;;1.60;;
7173;SDS011;3628;48.654;8.932;2024-02-15T09:30:06;3.10;;;1.73;;
7173;SDS011;3628;48.654;8.932;2024-02-15T09:32:33;2.67;;;1.83;;
7173;SDS011;3628;48.654;8.932;2024-02-15T09:34:59;2.43;;;1.73;;
7173;SDS011;3628;48.654;8.932;2024-02-15T09:37:25;2.00;;;1.70;;
7173;SDS011;3628;48.654;8.932;2024-02-15T09:39:53;1.63;;;1.40;;
7173;SDS011;3628;48.654;8.932;2024-02-15T09:42:20;2.77;;;1.77;;
7173;SDS011;3628;48.654;8.932;2024-02-15T09:44:46;2.90;;;1.53;;
7173;SDS011;3628;48.654;8.932;2024-02-15T09:47:12;3.57;;;1.80;;
7173;SDS011;3628;48.654;8.932;2024-02-15T09:49:41;3.77;;;1.60;;
7173;SDS011;3628;48.654;8.932;2024-02-15T09:52:07;2.07;;;1.27;;
7173;SDS011;3628;48.654;8.932;2024-02-15T09:54:39;2.27;;;1.47;;
7173;SDS011;3628;48.654;8.932;2024-02-15T09:57:08;3.00;;;1.37;;
7173;SDS011;3628;48.654;8.932;2024-02-15T09:59:38;3.60;;;1.57;;
7173;SDS011;3628;48.654;8.932;2024-02-15T10:02:05;1.93;;;1.37;;
7173;SDS011;3628;48.654;8.932;2024-02-15T10:04:36;2.33;;;1.57;;
7173;SDS011;3628;48.654;8.932;2024-02-15T10:07:06;2.63;;;1.40;;
7173;SDS011;3628;48.654;8.932;2024-02-15T10:09:35;2.83;;;1.23;;
7173;SDS011;3628;48.654;8.932;2024-02-15T10:12:07;3.57;;;1.30;;
7173;SDS011;3628;48.654;8.932;2024-02-15T10:14:34;2.17;;;1.50;;
7173;SDS011;3628;48.654;8.932;2024-02-15T10:17:07;3.60;;;1.30;;
7173;SDS011;3628;48.654;8.932;2024-02-15T10:19:39;1.70;;;1.20;;
7173;SDS011;3628;48.654;8.932;2024-02-15T10:22:08;1.90;;;1.20;;
7173;SDS011;3628;48.654;8.932;2024-02-15T10:24:34;2.83;;;1.30;;
7173;SDS011;3628;48.654;8.932;2024-02-15T10:27:03;2.87;;;1.10;;
7173;SDS011;3628;48.654;8.932;2024-02-15T10:29:31;1.00;;;0.83;;
7173;SDS011;3628;48.654;8.932;2024-02-15T10:31:59;1.13;;;0.85;;
7173;SDS011;3628;48.654;8.932;2024-02-15T10:34:27;1.33;;;0.85;;
7173;SDS011;3628;48.654;8.932;2024-02-15T10:39:37;1.70;;;0.77;;
7173;SDS011;3628;48.654;8.932;2024-02-15T10:42:04;1.77;;;0.55;;
7173;SDS011;3628;48.654;8.932;2024-02-15T10:44:31;2.80;;;0.88;;
7173;SDS011;3628;48.654;8.932;2024-02-15T10:46:59;1.23;;;0.65;;
7173;SDS011;3628;48.654;8.932;2024-02-15T10:49:25;1.75;;;0.60;;
7173;SDS011;3628;48.654;8.932;2024-02-15T10:51:56;0.82;;;0.55;;
7173;SDS011;3628;48.654;8.932;2024-02-15T10:57:11;2.72;;;0.80;;
7173;SDS011;3628;48.654;8.932;2024-02-15T10:59:39;1.48;;;0.70;;
7173;SDS011;3628;48.654;8.932;2024-02-15T11:02:36;2.70;;;0.60;;
7173;SDS011;3628;48.654;8.932;2024-02-15T11:05:03;1.00;;;0.60;;
7173;SDS011;3628;48.654;8.932;2024-02-15T11:07:34;2.00;;;0.60;;
7173;SDS011;3628;48.654;8.932;2024-02-15T11:10:04;1.80;;;0.70;;
7173;SDS011;3628;48.654;8.932;2024-02-15T11:12:35;2.70;;;1.60;;
7173;SDS011;3628;48.654;8.932;2024-02-15T11:15:02;1.00;;;0.60;;
7173;SDS011;3628;48.654;8.932;2024-02-15T11:22:59;3.00;;;1.10;;
7173;SDS011;3628;48.654;8.932;2024-02-15T11:25:32;1.92;;;0.55;;
7173;SDS011;3628;48.654;8.932;2024-02-15T11:28:44;1.25;;;0.65;;
7173;SDS011;3628;48.654;8.932;2024-02-15T11:30:54;3.03;;;1.05;;
7173;SDS011;3628;48.654;8.932;2024-02-15T11:33:33;1.67;;;0.80;;
7173;SDS011;3628;48.654;8.932;2024-02-15T11:38:33;1.60;;;0.70;;
7173;SDS011;3628;48.654;8.932;2024-02-15T11:41:00;1.35;;;0.95;;
7173;SDS011;3628;48.654;8.932;2024-02-15T11:43:47;1.42;;;0.82;;
7173;SDS011;3628;48.654;8.932;2024-02-15T11:46:30;1.13;;;0.90;;
7173;SDS011;3628;48.654;8.932;2024-02-15T11:48:57;2.58;;;0.73;;
7173;SDS011;3628;48.654;8.932;2024-02-15T11:51:31;1.80;;;0.60;;
7173;SDS011;3628;48.654;8.932;2024-02-15T11:54:11;1.42;;;0.70;;
7173;SDS011;3628;48.654;8.932;2024-02-15T11:59:08;1.60;;;0.75;;
7173;SDS011;3628;48.654;8.932;2024-02-15T12:01:43;1.73;;;0.50;;
7173;SDS011;3628;48.654;8.932;2024-02-15T12:04:28;1.48;;;0.80;;
7173;SDS011;3628;48.654;8.932;2024-02-15T12:07:16;1.20;;;0.68;;
7173;SDS011;3628;48.654;8.932;2024-02-15T12:10:00;0.60;;;0.60;;
7173;SDS011;3628;48.654;8.932;2024-02-15T12:12:51;2.38;;;0.68;;
7173;SDS011;3628;48.654;8.932;2024-02-15T12:15:40;0.63;;;0.50;;
7173;SDS011;3628;48.654;8.932;2024-02-15T12:18:25;1.90;;;1.02;;
7173;SDS011;3628;48.654;8.932;2024-02-15T12:21:09;1.75;;;0.90;;
7173;SDS011;3628;48.654;8.932;2024-02-15T12:23:39;2.90;;;0.90;;
7173;SDS011;3628;48.654;8.932;2024-02-15T12:26:06;3.58;;;0.65;;
7173;SDS011;3628;48.654;8.932;2024-02-15T12:28:33;0.60;;;0.57;;
7173;SDS011;3628;48.654;8.932;2024-02-15T12:31:02;1.10;;;0.68;;
7173;SDS011;3628;48.654;8.932;2024-02-15T12:33:27;1.45;;;0.95;;
7173;SDS011;3628;48.654;8.932;2024-02-15T12:36:04;1.98;;;0.80;;
7173;SDS011;3628;48.654;8.932;2024-02-15T12:38:30;1.70;;;0.50;;
7173;SDS011;3628;48.654;8.932;2024-02-15T12:40:56;1.38;;;0.77;;
7173;SDS011;3628;48.654;8.932;2024-02-15T12:43:22;1.17;;;0.57;;
7173;SDS011;3628;48.654;8.932;2024-02-15T12:45:47;0.95;;;0.80;;
7173;SDS011;3628;48.654;8.932;2024-02-15T12:48:13;1.38;;;0.80;;
7173;SDS011;3628;48.654;8.932;2024-02-15T12:50:40;1.60;;;0.70;;
7173;SDS011;3628;48.654;8.932;2024-02-15T12:53:06;0.70;;;0.70;;
7173;SDS011;3628;48.654;8.932;2024-02-15T12:55:33;1.95;;;0.70;;
7173;SDS011;3628;48.654;8.932;2024-02-15T12:58:01;1.45;;;0.68;;
7173;SDS011;3628;48.654;8.932;2024-02-15T13:00:33;1.75;;;0.95;;
7173;SDS011;3628;48.654;8.932;2024-02-15T13:03:02;2.00;;;0.60;;
7173;SDS011;3628;48.654;8.932;2024-02-15T13:05:29;2.80;;;1.10;;
7173;SDS011;3628;48.654;8.932;2024-02-15T13:07:56;1.88;;;0.82;;
7173;SDS011;3628;48.654;8.932;2024-02-15T13:10:27;2.80;;;1.17;;
7173;SDS011;3628;48.654;8.932;2024-02-15T13:12:54;1.95;;;1.02;;
7173;SDS011;3628;48.654;8.932;2024-02-15T13:15:20;2.75;;;0.75;;
7173;SDS011;3628;48.654;8.932;2024-02-15T13:17:47;1.98;;;0.93;;
7173;SDS011;3628;48.654;8.932;2024-02-15T13:20:16;0.93;;;0.73;;
7173;SDS011;3628;48.654;8.932;2024-02-15T13:22:45;1.48;;;0.90;;
7173;SDS011;3628;48.654;8.932;2024-02-15T13:25:14;2.38;;;1.10;;
7173;SDS011;3628;48.654;8.932;2024-02-15T13:27:46;2.20;;;0.82;;
7173;SDS011;3628;48.654;8.932;2024-02-15T13:30:12;2.15;;;1.00;;
7173;SDS011;3628;48.654;8.932;2024-02-15T13:32:38;1.95;;;0.95;;
7173;SDS011;3628;48.654;8.932;2024-02-15T13:35:08;2.22;;;1.23;;
7173;SDS011;3628;48.654;8.932;2024-02-15T13:37:48;1.63;;;1.05;;
7173;SDS011;3628;48.654;8.932;2024-02-15T13:40:14;1.52;;;1.00;;
7173;SDS011;3628;48.654;8.932;2024-02-15T13:42:47;0.85;;;0.70;;
7173;SDS011;3628;48.654;8.932;2024-02-15T13:45:22;3.88;;;0.93;;
7173;SDS011;3628;48.654;8.932;2024-02-15T13:47:50;2.85;;;0.82;;
7173;SDS011;3628;48.654;8.932;2024-02-15T13:50:18;1.15;;;0.90;;
7173;SDS011;3628;48.654;8.932;2024-02-15T13:52:44;1.10;;;0.82;;
7173;SDS011;3628;48.654;8.932;2024-02-15T13:55:13;3.42;;;0.90;;
7173;SDS011;3628;48.654;8.932;2024-02-15T13:57:40;1.70;;;1.00;;
7173;SDS011;3628;48.654;8.932;2024-02-15T14:00:10;1.40;;;1.00;;
7173;SDS011;3628;48.654;8.932;2024-02-15T14:02:47;1.42;;;0.80;;
7173;SDS011;3628;48.654;8.932;2024-02-15T14:05:19;3.50;;;1.10;;
7173;SDS011;3628;48.654;8.932;2024-02-15T14:07:49;1.52;;;1.10;;
7173;SDS011;3628;48.654;8.932;2024-02-15T14:10:15;1.35;;;0.82;;
7173;SDS011;3628;48.654;8.932;2024-02-15T14:12:46;2.10;;;0.93;;
7173;SDS011;3628;48.654;8.932;2024-02-15T14:15:12;1.15;;;0.80;;
7173;SDS011;3628;48.654;8.932;2024-02-15T14:17:38;1.10;;;0.77;;
7173;SDS011;3628;48.654;8.932;2024-02-15T14:20:04;3.28;;;1.08;;
7173;SDS011;3628;48.654;8.932;2024-02-15T14:22:34;3.33;;;1.00;;
7173;SDS011;3628;48.654;8.932;2024-02-15T14:25:00;1.70;;;0.88;;
7173;SDS011;3628;48.654;8.932;2024-02-15T14:27:27;1.63;;;0.90;;
7173;SDS011;3628;48.654;8.932;2024-02-15T14:29:52;0.88;;;0.80;;
7173;SDS011;3628;48.654;8.932;2024-02-15T14:32:36;1.35;;;0.70;;
7173;SDS011;3628;48.654;8.932;2024-02-15T14:35:20;1.95;;;0.70;;
7173;SDS011;3628;48.654;8.932;2024-02-15T14:37:46;0.95;;;0.70;;
7173;SDS011;3628;48.654;8.932;2024-02-15T14:40:12;1.48;;;0.85;;
7173;SDS011;3628;48.654;8.932;2024-02-15T14:42:41;1.40;;;0.80;;
7173;SDS011;3628;48.654;8.932;2024-02-15T14:45:11;1.50;;;0.70;;
7173;SDS011;3628;48.654;8.932;2024-02-15T14:47:37;2.35;;;0.82;;
7173;SDS011;3628;48.654;8.932;2024-02-15T14:50:03;4.90;;;1.00;;
7173;SDS011;3628;48.654;8.932;2024-02-15T14:52:33;1.42;;;1.00;;
7173;SDS011;3628;48.654;8.932;2024-02-15T14:55:04;1.48;;;0.80;;
7173;SDS011;3628;48.654;8.932;2024-02-15T14:57:31;1.27;;;0.77;;
7173;SDS011;3628;48.654;8.932;2024-02-15T14:59:57;0.80;;;0.80;;
7173;SDS011;3628;48.654;8.932;2024-02-15T15:02:23;2.47;;;0.70;;
7173;SDS011;3628;48.654;8.932;2024-02-15T15:04:49;2.22;;;1.17;;
7173;SDS011;3628;48.654;8.932;2024-02-15T15:07:33;3.58;;;1.40;;
7173;SDS011;3628;48.654;8.932;2024-02-15T15:10:17;5.72;;;2.60;;
7173;SDS011;3628;48.654;8.932;2024-02-15T15:13:02;4.00;;;1.83;;
7173;SDS011;3628;48.654;8.932;2024-02-15T15:15:28;4.88;;;2.40;;
7173;SDS011;3628;48.654;8.932;2024-02-15T15:17:53;5.55;;;2.58;;
7173;SDS011;3628;48.654;8.932;2024-02-15T15:20:20;6.28;;;2.15;;
7173;SDS011;3628;48.654;8.932;2024-02-15T15:22:46;2.78;;;1.70;;
7173;SDS011;3628;48.654;8.932;2024-02-15T15:25:11;3.67;;;1.67;;
7173;SDS011;3628;48.654;8.932;2024-02-15T15:27:37;2.50;;;1.17;;
7173;SDS011;3628;48.654;8.932;2024-02-15T15:30:04;2.00;;;1.23;;
7173;SDS011;3628;48.654;8.932;2024-02-15T15:32:31;3.97;;;1.60;;
7173;SDS011;3628;48.654;8.932;2024-02-15T15:34:58;3.00;;;1.23;;
7173;SDS011;3628;48.654;8.932;2024-02-15T15:37:24;2.30;;;1.20;;
7173;SDS011;3628;48.654;8.932;2024-02-15T15:39:49;2.67;;;1.20;;
7173;SDS011;3628;48.654;8.932;2024-02-15T15:42:16;4.00;;;1.63;;
7173;SDS011;3628;48.654;8.932;2024-02-15T15:44:43;2.72;;;1.45;;